sensor_id;sensor_type;location;lat;lon;timestamp;P1;durP1;ratioP1;P2;durP2;ratioP2
22219;SDS011;11279;48.364;10.904;2023-08-21T00:00:05;12.57;;;8.37;;
22219;SDS011;11279;48.364;10.904;2023-08-21T00:01:07;14.83;;;9.70;;
22219;SDS011;11279;48.364;10.904;2023-08-21T00:02:09;12.43;;;8.57;;
22219;SDS011;11279;48.364;10.904;2023-08-21T00:03:09;15.87;;;9.30;;
22219;SDS011;11279;48.364;10.904;2023-08-21T00:04:09;12.73;;;8.60;;
22219;SDS011;11279;48.364;10.904;2023-08-21T00:05:10;13.73;;;9.60;;
22219;SDS011;11279;48.364;10.904;2023-08-21T00:06:10;12.40;;;8.60;;
22219;SDS011;11279;48.364;10.904;2023-08-21T00:07:11;12.27;;;7.87;;
22219;SDS011;11279;48.364;10.904;2023-08-21T00:08:11;9.97;;;8.23;;
22219;SDS011;11279;48.364;10.904;2023-08-21T00:09:12;16.80;;;8.37;;
22219;SDS011;11279;48.364;10.904;2023-08-21T00:10:12;13.73;;;9.00;;
22219;SDS011;11279;48.364;10.904;2023-08-21T00:11:14;19.10;;;8.77;;
22219;SDS011;11279;48.364;10.904;2023-08-21T00:12:14;11.77;;;8.87;;
22219;SDS011;11279;48.364;10.904;2023-08-21T00:13:15;13.87;;;9.47;;
22219;SDS011;11279;48.364;10.904;2023-08-21T00:14:15;12.57;;;8.87;;
22219;SDS011;11279;48.364;10.904;2023-08-21T00:15:16;11.93;;;8.13;;
22219;SDS011;11279;48.364;10.904;2023-08-21T00:16:16;11.73;;;8.57;;
22219;SDS011;11279;48.364;10.904;2023-08-21T00:17:18;10.40;;;7.73;;
22219;SDS011;11279;48.364;10.904;2023-08-21T00:18:19;10.83;;;8.10;;
22219;SDS011;11279;48.364;10.904;2023-08-21T00:19:19;13.77;;;8.60;;
22219;SDS011;11279;48.364;10.904;2023-08-21T00:20:20;12.33;;;8.70;;
22219;SDS011;11279;48.364;10.904;2023-08-21T00:21:20;12.07;;;8.53;;
22219;SDS011;11279;48.364;10.904;2023-08-21T00:22:21;12.23;;;8.43;;
22219;SDS011;11279;48.364;10.904;2023-08-21T00:23:21;11.00;;;8.50;;
22219;SDS011;11279;48.364;10.904;2023-08-21T00:24:21;10.67;;;8.07;;
22219;SDS011;11279;48.364;10.904;2023-08-21T00:25:22;11.43;;;8.60;;
22219;SDS011;11279;48.364;10.904;2023-08-21T00:26:22;11.90;;;8.50;;
22219;SDS011;11279;48.364;10.904;2023-08-21T00:27:23;13.90;;;8.20;;
22219;SDS011;11279;48.364;10.904;2023-08-21T00:28:23;13.60;;;8.60;;
22219;SDS011;11279;48.364;10.904;2023-08-21T00:29:24;11.73;;;8.43;;
22219;SDS011;11279;48.364;10.904;2023-08-21T00:30:25;11.40;;;8.13;;
22219;SDS011;11279;48.364;10.904;2023-08-21T00:31:25;14.47;;;9.20;;
22219;SDS011;11279;48.364;10.904;2023-08-21T00:32:26;14.27;;;9.73;;
22219;SDS011;11279;48.364;10.904;2023-08-21T00:33:26;13.43;;;9.50;;
22219;SDS011;11279;48.364;10.904;2023-08-21T00:34:26;11.90;;;8.63;;
22219;SDS011;11279;48.364;10.904;2023-08-21T00:35:27;14.97;;;9.13;;
22219;SDS011;11279;48.364;10.904;2023-08-21T00:36:27;12.33;;;8.47;;
22219;SDS011;11279;48.364;10.904;2023-08-21T00:37:28;15.57;;;8.40;;
22219;SDS011;11279;48.364;10.904;2023-08-21T00:38:28;11.87;;;8.40;;
22219;SDS011;11279;48.364;10.904;2023-08-21T00:39:29;13.57;;;9.40;;
22219;SDS011;11279;48.364;10.904;2023-08-21T00:40:30;12.83;;;8.43;;
22219;SDS011;11279;48.364;10.904;2023-08-21T00:41:31;10.40;;;8.43;;
22219;SDS011;11279;48.364;10.904;2023-08-21T00:42:34;13.20;;;8.30;;
22219;SDS011;11279;48.364;10.904;2023-08-21T00:43:34;14.60;;;9.13;;
22219;SDS011;11279;48.364;10.904;2023-08-21T00:44:35;12.17;;;8.87;;
22219;SDS011;11279;48.364;10.904;2023-08-21T00:45:35;13.00;;;7.93;;
22219;SDS011;11279;48.364;10.904;2023-08-21T00:46:36;11.67;;;8.20;;
22219;SDS011;11279;48.364;10.904;2023-08-21T00:47:36;13.70;;;8.57;;
22219;SDS011;11279;48.364;10.904;2023-08-21T00:48:37;12.70;;;8.90;;
22219;SDS011;11279;48.364;10.904;2023-08-21T00:49:38;13.43;;;7.90;;
22219;SDS011;11279;48.364;10.904;2023-08-21T00:50:39;14.27;;;8.97;;
22219;SDS011;11279;48.364;10.904;2023-08-21T00:51:40;13.53;;;8.73;;
22219;SDS011;11279;48.364;10.904;2023-08-21T00:52:40;12.33;;;8.90;;
22219;SDS011;11279;48.364;10.904;2023-08-21T00:53:43;12.53;;;8.93;;
22219;SDS011;11279;48.364;10.904;2023-08-21T00:54:44;13.10;;;8.63;;
22219;SDS011;11279;48.364;10.904;2023-08-21T00:55:45;15.33;;;8.73;;
22219;SDS011;11279;48.364;10.904;2023-08-21T00:56:45;12.10;;;8.10;;
22219;SDS011;11279;48.364;10.904;2023-08-21T00:57:46;14.13;;;8.90;;
22219;SDS011;11279;48.364;10.904;2023-08-21T00:58:46;11.77;;;8.80;;
22219;SDS011;11279;48.364;10.904;2023-08-21T00:59:47;10.97;;;7.97;;
22219;SDS011;11279;48.364;10.904;2023-08-21T01:00:48;12.57;;;9.37;;
22219;SDS011;11279;48.364;10.904;2023-08-21T01:01:50;13.33;;;9.13;;
22219;SDS011;11279;48.364;10.904;2023-08-21T01:02:51;13.40;;;8.57;;
22219;SDS011;11279;48.364;10.904;2023-08-21T01:03:52;13.37;;;9.37;;
22219;SDS011;11279;48.364;10.904;2023-08-21T01:04:52;12.40;;;9.03;;
22219;SDS011;11279;48.364;10.904;2023-08-21T01:05:54;11.70;;;9.43;;
22219;SDS011;11279;48.364;10.904;2023-08-21T01:06:54;12.73;;;8.60;;
22219;SDS011;11279;48.364;10.904;2023-08-21T01:08:01;12.60;;;8.83;;
22219;SDS011;11279;48.364;10.904;2023-08-21T01:09:06;15.10;;;9.50;;
22219;SDS011;11279;48.364;10.904;2023-08-21T01:10:12;11.57;;;8.83;;
22219;SDS011;11279;48.364;10.904;2023-08-21T01:12:27;12.70;;;9.80;;
22219;SDS011;11279;48.364;10.904;2023-08-21T01:13:47;11.97;;;9.00;;
22219;SDS011;11279;48.364;10.904;2023-08-21T01:14:57;13.50;;;9.40;;
22219;SDS011;11279;48.364;10.904;2023-08-21T01:16:00;13.27;;;8.63;;
22219;SDS011;11279;48.364;10.904;2023-08-21T01:17:03;15.13;;;8.93;;
22219;SDS011;11279;48.364;10.904;2023-08-21T01:18:07;16.20;;;9.20;;
22219;SDS011;11279;48.364;10.904;2023-08-21T01:19:10;12.53;;;9.27;;
22219;SDS011;11279;48.364;10.904;2023-08-21T01:20:32;13.83;;;9.40;;
22219;SDS011;11279;48.364;10.904;2023-08-21T01:21:33;16.67;;;9.43;;
22219;SDS011;11279;48.364;10.904;2023-08-21T01:22:37;12.70;;;9.50;;
22219;SDS011;11279;48.364;10.904;2023-08-21T01:23:40;14.37;;;9.23;;
22219;SDS011;11279;48.364;10.904;2023-08-21T01:24:42;14.13;;;9.37;;
22219;SDS011;11279;48.364;10.904;2023-08-21T01:25:42;12.23;;;9.80;;
22219;SDS011;11279;48.364;10.904;2023-08-21T01:26:44;14.27;;;9.53;;
22219;SDS011;11279;48.364;10.904;2023-08-21T01:27:47;12.10;;;9.73;;
22219;SDS011;11279;48.364;10.904;2023-08-21T01:28:48;12.20;;;8.90;;
22219;SDS011;11279;48.364;10.904;2023-08-21T01:29:49;11.63;;;9.00;;
22219;SDS011;11279;48.364;10.904;2023-08-21T01:30:50;13.00;;;9.57;;
22219;SDS011;11279;48.364;10.904;2023-08-21T01:32:11;13.17;;;8.90;;
22219;SDS011;11279;48.364;10.904;2023-08-21T01:33:18;14.97;;;9.70;;
22219;SDS011;11279;48.364;10.904;2023-08-21T01:34:19;13.23;;;9.50;;
22219;SDS011;11279;48.364;10.904;2023-08-21T01:35:21;13.57;;;9.43;;
22219;SDS011;11279;48.364;10.904;2023-08-21T01:36:22;12.30;;;9.07;;
22219;SDS011;11279;48.364;10.904;2023-08-21T01:37:24;13.07;;;10.60;;
22219;SDS011;11279;48.364;10.904;2023-08-21T01:38:26;14.50;;;9.47;;
22219;SDS011;11279;48.364;10.904;2023-08-21T01:39:26;13.37;;;9.43;;
22219;SDS011;11279;48.364;10.904;2023-08-21T01:40:27;15.00;;;10.20;;
22219;SDS011;11279;48.364;10.904;2023-08-21T01:41:28;13.50;;;10.00;;
22219;SDS011;11279;48.364;10.904;2023-08-21T01:42:28;15.23;;;10.00;;
22219;SDS011;11279;48.364;10.904;2023-08-21T01:43:29;14.70;;;9.87;;
22219;SDS011;11279;48.364;10.904;2023-08-21T01:44:29;16.27;;;10.07;;
22219;SDS011;11279;48.364;10.904;2023-08-21T01:45:30;14.17;;;9.57;;
22219;SDS011;11279;48.364;10.904;2023-08-21T01:46:30;14.80;;;10.43;;
22219;SDS011;11279;48.364;10.904;2023-08-21T01:47:31;13.70;;;10.07;;
22219;SDS011;11279;48.364;10.904;2023-08-21T01:48:31;15.63;;;10.23;;
22219;SDS011;11279;48.364;10.904;2023-08-21T01:49:32;12.67;;;9.47;;
22219;SDS011;11279;48.364;10.904;2023-08-21T01:50:32;13.93;;;9.87;;
22219;SDS011;11279;48.364;10.904;2023-08-21T01:51:32;14.73;;;10.67;;
22219;SDS011;11279;48.364;10.904;2023-08-21T01:52:33;15.03;;;10.00;;
22219;SDS011;11279;48.364;10.904;2023-08-21T01:53:33;13.10;;;9.80;;
22219;SDS011;11279;48.364;10.904;2023-08-21T01:54:35;13.43;;;10.07;;
22219;SDS011;11279;48.364;10.904;2023-08-21T01:55:35;13.43;;;9.33;;
22219;SDS011;11279;48.364;10.904;2023-08-21T01:56:36;15.23;;;11.03;;
22219;SDS011;11279;48.364;10.904;2023-08-21T01:57:36;15.97;;;10.50;;
22219;SDS011;11279;48.364;10.904;2023-08-21T01:58:37;13.87;;;10.40;;
22219;SDS011;11279;48.364;10.904;2023-08-21T01:59:37;11.33;;;9.80;;
22219;SDS011;11279;48.364;10.904;2023-08-21T02:00:38;15.37;;;9.70;;
22219;SDS011;11279;48.364;10.904;2023-08-21T02:01:38;17.10;;;10.33;;
22219;SDS011;11279;48.364;10.904;2023-08-21T02:02:39;13.83;;;10.17;;
22219;SDS011;11279;48.364;10.904;2023-08-21T02:03:40;14.50;;;9.50;;
22219;SDS011;11279;48.364;10.904;2023-08-21T02:04:40;13.33;;;9.57;;
22219;SDS011;11279;48.364;10.904;2023-08-21T02:05:41;13.80;;;9.60;;
22219;SDS011;11279;48.364;10.904;2023-08-21T02:06:42;16.60;;;10.63;;
22219;SDS011;11279;48.364;10.904;2023-08-21T02:07:44;12.13;;;9.37;;
22219;SDS011;11279;48.364;10.904;2023-08-21T02:08:44;13.73;;;10.37;;
22219;SDS011;11279;48.364;10.904;2023-08-21T02:09:45;14.17;;;9.67;;
22219;SDS011;11279;48.364;10.904;2023-08-21T02:10:51;14.20;;;10.40;;
22219;SDS011;11279;48.364;10.904;2023-08-21T02:11:52;13.87;;;10.97;;
22219;SDS011;11279;48.364;10.904;2023-08-21T02:12:52;14.97;;;10.00;;
22219;SDS011;11279;48.364;10.904;2023-08-21T02:13:54;17.83;;;10.17;;
22219;SDS011;11279;48.364;10.904;2023-08-21T02:14:54;13.93;;;10.03;;
22219;SDS011;11279;48.364;10.904;2023-08-21T02:15:55;14.60;;;10.20;;
22219;SDS011;11279;48.364;10.904;2023-08-21T02:16:56;12.77;;;11.07;;
22219;SDS011;11279;48.364;10.904;2023-08-21T02:17:57;15.77;;;11.00;;
22219;SDS011;11279;48.364;10.904;2023-08-21T02:18:57;14.07;;;10.40;;
22219;SDS011;11279;48.364;10.904;2023-08-21T02:19:58;12.77;;;10.27;;
22219;SDS011;11279;48.364;10.904;2023-08-21T02:21:00;17.93;;;9.47;;
22219;SDS011;11279;48.364;10.904;2023-08-21T02:22:01;15.07;;;9.77;;
22219;SDS011;11279;48.364;10.904;2023-08-21T02:23:01;12.87;;;9.87;;
22219;SDS011;11279;48.364;10.904;2023-08-21T02:24:01;14.07;;;10.63;;
22219;SDS011;11279;48.364;10.904;2023-08-21T02:25:02;13.77;;;9.90;;
22219;SDS011;11279;48.364;10.904;2023-08-21T02:26:03;14.57;;;10.30;;
22219;SDS011;11279;48.364;10.904;2023-08-21T02:27:03;13.60;;;10.27;;
22219;SDS011;11279;48.364;10.904;2023-08-21T02:28:04;14.23;;;10.57;;
22219;SDS011;11279;48.364;10.904;2023-08-21T02:29:04;13.97;;;9.37;;
22219;SDS011;11279;48.364;10.904;2023-08-21T02:30:05;13.07;;;10.33;;
22219;SDS011;11279;48.364;10.904;2023-08-21T02:31:09;18.23;;;9.87;;
22219;SDS011;11279;48.364;10.904;2023-08-21T02:32:10;14.13;;;10.77;;
22219;SDS011;11279;48.364;10.904;2023-08-21T02:33:10;13.63;;;10.57;;
22219;SDS011;11279;48.364;10.904;2023-08-21T02:34:11;13.63;;;9.43;;
22219;SDS011;11279;48.364;10.904;2023-08-21T02:35:11;13.10;;;10.00;;
22219;SDS011;11279;48.364;10.904;2023-08-21T02:36:12;14.23;;;10.20;;
22219;SDS011;11279;48.364;10.904;2023-08-21T02:37:12;13.93;;;10.93;;
22219;SDS011;11279;48.364;10.904;2023-08-21T02:38:13;14.30;;;10.23;;
22219;SDS011;11279;48.364;10.904;2023-08-21T02:39:13;13.10;;;9.50;;
22219;SDS011;11279;48.364;10.904;2023-08-21T02:40:14;15.83;;;10.30;;
22219;SDS011;11279;48.364;10.904;2023-08-21T02:41:14;14.13;;;9.87;;
22219;SDS011;11279;48.364;10.904;2023-08-21T02:42:14;13.50;;;9.57;;
22219;SDS011;11279;48.364;10.904;2023-08-21T02:43:15;12.13;;;9.40;;
22219;SDS011;11279;48.364;10.904;2023-08-21T02:44:16;14.03;;;9.80;;
22219;SDS011;11279;48.364;10.904;2023-08-21T02:45:16;14.20;;;10.57;;
22219;SDS011;11279;48.364;10.904;2023-08-21T02:46:19;14.37;;;10.20;;
22219;SDS011;11279;48.364;10.904;2023-08-21T02:47:20;12.23;;;10.47;;
22219;SDS011;11279;48.364;10.904;2023-08-21T02:48:20;14.33;;;9.93;;
22219;SDS011;11279;48.364;10.904;2023-08-21T02:49:21;14.70;;;10.23;;
22219;SDS011;11279;48.364;10.904;2023-08-21T02:50:21;13.97;;;10.17;;
22219;SDS011;11279;48.364;10.904;2023-08-21T02:51:22;15.90;;;10.27;;
22219;SDS011;11279;48.364;10.904;2023-08-21T02:52:22;11.97;;;9.77;;
22219;SDS011;11279;48.364;10.904;2023-08-21T02:53:23;14.23;;;10.67;;
22219;SDS011;11279;48.364;10.904;2023-08-21T02:54:23;13.97;;;10.47;;
22219;SDS011;11279;48.364;10.904;2023-08-21T02:55:24;13.93;;;10.53;;
22219;SDS011;11279;48.364;10.904;2023-08-21T02:56:24;14.90;;;10.53;;
22219;SDS011;11279;48.364;10.904;2023-08-21T02:57:25;14.57;;;10.57;;
22219;SDS011;11279;48.364;10.904;2023-08-21T02:58:26;13.50;;;10.60;;
22219;SDS011;11279;48.364;10.904;2023-08-21T02:59:26;14.37;;;10.27;;
22219;SDS011;11279;48.364;10.904;2023-08-21T03:00:27;15.07;;;10.30;;
22219;SDS011;11279;48.364;10.904;2023-08-21T03:01:27;14.27;;;10.03;;
22219;SDS011;11279;48.364;10.904;2023-08-21T03:02:28;13.83;;;10.50;;
22219;SDS011;11279;48.364;10.904;2023-08-21T03:03:28;13.90;;;10.37;;
22219;SDS011;11279;48.364;10.904;2023-08-21T03:04:28;15.50;;;11.00;;
22219;SDS011;11279;48.364;10.904;2023-08-21T03:05:29;15.23;;;10.23;;
22219;SDS011;11279;48.364;10.904;2023-08-21T03:06:30;13.80;;;9.97;;
22219;SDS011;11279;48.364;10.904;2023-08-21T03:07:30;14.13;;;11.00;;
22219;SDS011;11279;48.364;10.904;2023-08-21T03:08:31;16.17;;;10.83;;
22219;SDS011;11279;48.364;10.904;2023-08-21T03:09:31;13.67;;;10.87;;
22219;SDS011;11279;48.364;10.904;2023-08-21T03:10:32;13.37;;;10.70;;
22219;SDS011;11279;48.364;10.904;2023-08-21T03:11:34;14.90;;;10.33;;
22219;SDS011;11279;48.364;10.904;2023-08-21T03:12:35;13.60;;;9.73;;
22219;SDS011;11279;48.364;10.904;2023-08-21T03:13:35;15.23;;;10.07;;
22219;SDS011;11279;48.364;10.904;2023-08-21T03:14:36;14.30;;;10.63;;
22219;SDS011;11279;48.364;10.904;2023-08-21T03:15:36;14.83;;;10.37;;
22219;SDS011;11279;48.364;10.904;2023-08-21T03:16:37;16.53;;;10.50;;
22219;SDS011;11279;48.364;10.904;2023-08-21T03:17:38;12.87;;;9.93;;
22219;SDS011;11279;48.364;10.904;2023-08-21T03:18:55;16.00;;;10.83;;
22219;SDS011;11279;48.364;10.904;2023-08-21T03:19:57;16.13;;;10.67;;
22219;SDS011;11279;48.364;10.904;2023-08-21T03:20:57;15.90;;;9.87;;
22219;SDS011;11279;48.364;10.904;2023-08-21T03:21:58;13.00;;;10.60;;
22219;SDS011;11279;48.364;10.904;2023-08-21T03:22:59;16.73;;;10.70;;
22219;SDS011;11279;48.364;10.904;2023-08-21T03:23:59;13.07;;;9.80;;
22219;SDS011;11279;48.364;10.904;2023-08-21T03:25:00;14.73;;;10.40;;
22219;SDS011;11279;48.364;10.904;2023-08-21T03:26:00;14.30;;;10.67;;
22219;SDS011;11279;48.364;10.904;2023-08-21T03:27:01;12.40;;;9.80;;
22219;SDS011;11279;48.364;10.904;2023-08-21T03:28:02;14.63;;;10.17;;
22219;SDS011;11279;48.364;10.904;2023-08-21T03:29:02;13.23;;;9.83;;
22219;SDS011;11279;48.364;10.904;2023-08-21T03:30:03;14.50;;;10.37;;
22219;SDS011;11279;48.364;10.904;2023-08-21T03:31:04;16.77;;;10.53;;
22219;SDS011;11279;48.364;10.904;2023-08-21T03:32:04;14.47;;;10.60;;
22219;SDS011;11279;48.364;10.904;2023-08-21T03:33:05;12.43;;;9.63;;
22219;SDS011;11279;48.364;10.904;2023-08-21T03:34:06;16.07;;;10.83;;
22219;SDS011;11279;48.364;10.904;2023-08-21T03:35:07;15.40;;;9.83;;
22219;SDS011;11279;48.364;10.904;2023-08-21T03:36:07;13.97;;;10.67;;
22219;SDS011;11279;48.364;10.904;2023-08-21T03:37:08;13.97;;;10.07;;
22219;SDS011;11279;48.364;10.904;2023-08-21T03:38:08;14.77;;;10.27;;
22219;SDS011;11279;48.364;10.904;2023-08-21T03:39:09;16.20;;;10.00;;
22219;SDS011;11279;48.364;10.904;2023-08-21T03:40:09;15.83;;;11.33;;
22219;SDS011;11279;48.364;10.904;2023-08-21T03:41:10;15.83;;;9.87;;
22219;SDS011;11279;48.364;10.904;2023-08-21T03:42:11;16.00;;;11.23;;
22219;SDS011;11279;48.364;10.904;2023-08-21T03:43:12;14.17;;;11.13;;
22219;SDS011;11279;48.364;10.904;2023-08-21T03:44:12;13.77;;;10.43;;
22219;SDS011;11279;48.364;10.904;2023-08-21T03:45:12;12.53;;;10.13;;
22219;SDS011;11279;48.364;10.904;2023-08-21T03:46:13;14.47;;;10.70;;
22219;SDS011;11279;48.364;10.904;2023-08-21T03:47:13;14.23;;;10.13;;
22219;SDS011;11279;48.364;10.904;2023-08-21T03:48:14;14.43;;;10.40;;
22219;SDS011;11279;48.364;10.904;2023-08-21T03:49:14;14.00;;;10.83;;
22219;SDS011;11279;48.364;10.904;2023-08-21T03:50:15;13.20;;;10.23;;
22219;SDS011;11279;48.364;10.904;2023-08-21T03:51:15;16.77;;;11.43;;
22219;SDS011;11279;48.364;10.904;2023-08-21T03:52:16;14.80;;;10.50;;
22219;SDS011;11279;48.364;10.904;2023-08-21T03:53:16;14.50;;;10.20;;
22219;SDS011;11279;48.364;10.904;2023-08-21T03:54:17;15.77;;;10.37;;
22219;SDS011;11279;48.364;10.904;2023-08-21T03:55:17;13.67;;;10.53;;
22219;SDS011;11279;48.364;10.904;2023-08-21T03:56:18;13.63;;;10.93;;
22219;SDS011;11279;48.364;10.904;2023-08-21T03:57:19;16.77;;;11.07;;
22219;SDS011;11279;48.364;10.904;2023-08-21T03:58:19;14.63;;;10.70;;
22219;SDS011;11279;48.364;10.904;2023-08-21T03:59:20;19.03;;;11.13;;
22219;SDS011;11279;48.364;10.904;2023-08-21T04:00:20;15.67;;;10.47;;
22219;SDS011;11279;48.364;10.904;2023-08-21T04:01:21;13.87;;;10.87;;
22219;SDS011;11279;48.364;10.904;2023-08-21T04:02:21;13.90;;;10.73;;
22219;SDS011;11279;48.364;10.904;2023-08-21T04:03:22;19.77;;;11.30;;
22219;SDS011;11279;48.364;10.904;2023-08-21T04:04:22;18.83;;;11.30;;
22219;SDS011;11279;48.364;10.904;2023-08-21T04:05:22;17.03;;;11.43;;
22219;SDS011;11279;48.364;10.904;2023-08-21T04:06:23;15.17;;;10.90;;
22219;SDS011;11279;48.364;10.904;2023-08-21T04:07:24;14.73;;;10.47;;
22219;SDS011;11279;48.364;10.904;2023-08-21T04:08:24;18.17;;;10.90;;
22219;SDS011;11279;48.364;10.904;2023-08-21T04:09:25;13.67;;;10.17;;
22219;SDS011;11279;48.364;10.904;2023-08-21T04:10:25;15.00;;;11.50;;
22219;SDS011;11279;48.364;10.904;2023-08-21T04:11:26;14.07;;;10.43;;
22219;SDS011;11279;48.364;10.904;2023-08-21T04:12:28;16.90;;;11.60;;
22219;SDS011;11279;48.364;10.904;2023-08-21T04:13:29;16.80;;;10.73;;
22219;SDS011;11279;48.364;10.904;2023-08-21T04:14:29;16.07;;;10.97;;
22219;SDS011;11279;48.364;10.904;2023-08-21T04:15:30;15.13;;;11.07;;
22219;SDS011;11279;48.364;10.904;2023-08-21T04:16:31;12.93;;;10.20;;
22219;SDS011;11279;48.364;10.904;2023-08-21T04:17:31;17.30;;;10.27;;
22219;SDS011;11279;48.364;10.904;2023-08-21T04:18:32;15.87;;;10.53;;
22219;SDS011;11279;48.364;10.904;2023-08-21T04:19:32;15.67;;;11.00;;
22219;SDS011;11279;48.364;10.904;2023-08-21T04:20:34;14.43;;;10.33;;
22219;SDS011;11279;48.364;10.904;2023-08-21T04:21:34;16.37;;;11.27;;
22219;SDS011;11279;48.364;10.904;2023-08-21T04:22:34;18.60;;;11.47;;
22219;SDS011;11279;48.364;10.904;2023-08-21T04:23:35;15.17;;;10.50;;
22219;SDS011;11279;48.364;10.904;2023-08-21T04:24:36;15.80;;;10.47;;
22219;SDS011;11279;48.364;10.904;2023-08-21T04:25:36;14.67;;;10.53;;
22219;SDS011;11279;48.364;10.904;2023-08-21T04:26:37;13.53;;;10.30;;
22219;SDS011;11279;48.364;10.904;2023-08-21T04:27:37;14.27;;;10.53;;
22219;SDS011;11279;48.364;10.904;2023-08-21T04:28:38;15.03;;;9.70;;
22219;SDS011;11279;48.364;10.904;2023-08-21T04:29:38;15.90;;;10.80;;
22219;SDS011;11279;48.364;10.904;2023-08-21T04:30:42;16.20;;;10.77;;
22219;SDS011;11279;48.364;10.904;2023-08-21T04:31:42;12.17;;;9.50;;
22219;SDS011;11279;48.364;10.904;2023-08-21T04:32:43;15.07;;;10.17;;
22219;SDS011;11279;48.364;10.904;2023-08-21T04:33:43;14.03;;;10.27;;
22219;SDS011;11279;48.364;10.904;2023-08-21T04:34:43;15.10;;;10.23;;
22219;SDS011;11279;48.364;10.904;2023-08-21T04:35:44;14.13;;;10.20;;
22219;SDS011;11279;48.364;10.904;2023-08-21T04:36:44;17.07;;;11.43;;
22219;SDS011;11279;48.364;10.904;2023-08-21T04:37:48;13.67;;;10.77;;
22219;SDS011;11279;48.364;10.904;2023-08-21T04:38:48;16.27;;;10.70;;
22219;SDS011;11279;48.364;10.904;2023-08-21T04:39:52;19.50;;;11.43;;
22219;SDS011;11279;48.364;10.904;2023-08-21T04:40:53;17.20;;;11.07;;
22219;SDS011;11279;48.364;10.904;2023-08-21T04:41:54;15.27;;;11.40;;
22219;SDS011;11279;48.364;10.904;2023-08-21T04:42:54;15.10;;;10.70;;
22219;SDS011;11279;48.364;10.904;2023-08-21T04:43:55;16.80;;;11.03;;
22219;SDS011;11279;48.364;10.904;2023-08-21T04:44:55;14.93;;;10.57;;
22219;SDS011;11279;48.364;10.904;2023-08-21T04:45:55;19.40;;;11.60;;
22219;SDS011;11279;48.364;10.904;2023-08-21T04:46:56;17.97;;;11.80;;
22219;SDS011;11279;48.364;10.904;2023-08-21T04:47:56;16.20;;;10.50;;
22219;SDS011;11279;48.364;10.904;2023-08-21T04:48:57;17.90;;;11.13;;
22219;SDS011;11279;48.364;10.904;2023-08-21T04:49:57;14.40;;;10.97;;
22219;SDS011;11279;48.364;10.904;2023-08-21T04:50:58;16.03;;;10.73;;
22219;SDS011;11279;48.364;10.904;2023-08-21T04:51:58;15.23;;;11.47;;
22219;SDS011;11279;48.364;10.904;2023-08-21T04:52:59;16.80;;;10.77;;
22219;SDS011;11279;48.364;10.904;2023-08-21T04:53:59;16.90;;;10.87;;
22219;SDS011;11279;48.364;10.904;2023-08-21T04:55:00;16.53;;;11.20;;
22219;SDS011;11279;48.364;10.904;2023-08-21T04:56:00;16.13;;;10.13;;
22219;SDS011;11279;48.364;10.904;2023-08-21T04:57:01;16.00;;;10.83;;
22219;SDS011;11279;48.364;10.904;2023-08-21T04:58:01;16.13;;;11.63;;
22219;SDS011;11279;48.364;10.904;2023-08-21T04:59:02;16.17;;;11.03;;
22219;SDS011;11279;48.364;10.904;2023-08-21T05:00:03;15.50;;;11.03;;
22219;SDS011;11279;48.364;10.904;2023-08-21T05:01:04;20.03;;;11.47;;
22219;SDS011;11279;48.364;10.904;2023-08-21T05:02:05;22.80;;;11.80;;
22219;SDS011;11279;48.364;10.904;2023-08-21T05:03:05;17.13;;;10.63;;
22219;SDS011;11279;48.364;10.904;2023-08-21T05:04:06;18.03;;;11.33;;
22219;SDS011;11279;48.364;10.904;2023-08-21T05:05:07;18.70;;;11.40;;
22219;SDS011;11279;48.364;10.904;2023-08-21T05:06:08;15.67;;;10.40;;
22219;SDS011;11279;48.364;10.904;2023-08-21T05:07:09;17.23;;;10.93;;
22219;SDS011;11279;48.364;10.904;2023-08-21T05:08:09;15.20;;;10.97;;
22219;SDS011;11279;48.364;10.904;2023-08-21T05:09:09;16.33;;;11.00;;
22219;SDS011;11279;48.364;10.904;2023-08-21T05:10:10;19.07;;;11.90;;
22219;SDS011;11279;48.364;10.904;2023-08-21T05:11:10;14.63;;;11.37;;
22219;SDS011;11279;48.364;10.904;2023-08-21T05:12:11;14.90;;;10.87;;
22219;SDS011;11279;48.364;10.904;2023-08-21T05:13:11;17.93;;;10.63;;
22219;SDS011;11279;48.364;10.904;2023-08-21T05:14:12;12.73;;;10.50;;
22219;SDS011;11279;48.364;10.904;2023-08-21T05:15:12;14.17;;;11.10;;
22219;SDS011;11279;48.364;10.904;2023-08-21T05:16:14;19.27;;;10.70;;
22219;SDS011;11279;48.364;10.904;2023-08-21T05:17:15;15.17;;;11.20;;
22219;SDS011;11279;48.364;10.904;2023-08-21T05:18:15;14.10;;;10.53;;
22219;SDS011;11279;48.364;10.904;2023-08-21T05:19:16;18.13;;;10.23;;
22219;SDS011;11279;48.364;10.904;2023-08-21T05:20:17;15.03;;;10.17;;
22219;SDS011;11279;48.364;10.904;2023-08-21T05:21:17;14.93;;;10.07;;
22219;SDS011;11279;48.364;10.904;2023-08-21T05:22:18;17.90;;;10.43;;
22219;SDS011;11279;48.364;10.904;2023-08-21T05:23:18;15.27;;;10.43;;
22219;SDS011;11279;48.364;10.904;2023-08-21T05:24:19;13.73;;;9.67;;
22219;SDS011;11279;48.364;10.904;2023-08-21T05:25:19;12.80;;;10.60;;
22219;SDS011;11279;48.364;10.904;2023-08-21T05:26:20;19.37;;;10.53;;
22219;SDS011;11279;48.364;10.904;2023-08-21T05:27:20;16.03;;;11.13;;
22219;SDS011;11279;48.364;10.904;2023-08-21T05:28:20;15.43;;;10.50;;
22219;SDS011;11279;48.364;10.904;2023-08-21T05:29:21;16.57;;;10.57;;
22219;SDS011;11279;48.364;10.904;2023-08-21T05:30:23;17.40;;;10.97;;
22219;SDS011;11279;48.364;10.904;2023-08-21T05:31:23;16.20;;;11.33;;
22219;SDS011;11279;48.364;10.904;2023-08-21T05:32:23;15.37;;;11.17;;
22219;SDS011;11279;48.364;10.904;2023-08-21T05:33:24;17.17;;;11.73;;
22219;SDS011;11279;48.364;10.904;2023-08-21T05:34:24;15.97;;;11.33;;
22219;SDS011;11279;48.364;10.904;2023-08-21T05:35:25;16.53;;;10.33;;
22219;SDS011;11279;48.364;10.904;2023-08-21T05:36:26;14.03;;;10.47;;
22219;SDS011;11279;48.364;10.904;2023-08-21T05:37:26;16.40;;;10.93;;
22219;SDS011;11279;48.364;10.904;2023-08-21T05:38:27;15.03;;;10.50;;
22219;SDS011;11279;48.364;10.904;2023-08-21T05:39:27;17.57;;;10.97;;
22219;SDS011;11279;48.364;10.904;2023-08-21T05:40:27;13.77;;;10.57;;
22219;SDS011;11279;48.364;10.904;2023-08-21T05:41:28;14.10;;;10.37;;
22219;SDS011;11279;48.364;10.904;2023-08-21T05:42:28;16.07;;;10.80;;
22219;SDS011;11279;48.364;10.904;2023-08-21T05:43:29;13.50;;;9.93;;
22219;SDS011;11279;48.364;10.904;2023-08-21T05:44:30;12.70;;;9.67;;
22219;SDS011;11279;48.364;10.904;2023-08-21T05:45:30;16.43;;;10.30;;
22219;SDS011;11279;48.364;10.904;2023-08-21T05:46:32;16.37;;;10.63;;
22219;SDS011;11279;48.364;10.904;2023-08-21T05:47:32;13.17;;;10.73;;
22219;SDS011;11279;48.364;10.904;2023-08-21T05:48:32;14.03;;;10.00;;
22219;SDS011;11279;48.364;10.904;2023-08-21T05:49:33;17.10;;;10.47;;
22219;SDS011;11279;48.364;10.904;2023-08-21T05:50:33;14.80;;;10.10;;
22219;SDS011;11279;48.364;10.904;2023-08-21T05:51:36;18.07;;;10.73;;
22219;SDS011;11279;48.364;10.904;2023-08-21T05:52:37;20.50;;;11.03;;
22219;SDS011;11279;48.364;10.904;2023-08-21T05:53:37;13.17;;;10.03;;
22219;SDS011;11279;48.364;10.904;2023-08-21T05:54:37;20.40;;;10.63;;